Time;durP1;ratioP1;P1;durP2;ratioP2;P2;SDS_P1;SDS_P2;PMS_P1;PMS_P2;Temp;Humidity;BMP_temperature;BMP_pressure;BME280_temperature;BME280_humidity;BME280_pressure;Samples;Min_cycle;Max_cycle;Signal;HPM_P1;HPM_P2
2022/08/04 04:04:50;;;;;;;4.85;4.00;;;;;;;23.81;50.00;100632.91;5606226;31;77416;-57
2022/08/04 04:08:33;;;;;;;4.80;3.90;;;;;;;23.81;50.00;100632.91;5584151;31;34102;-57
2022/08/04 04:11:55;;;;;;;4.50;3.60;;;;;;;23.36;50.99;100636.31;5583639;32;33664;-57
2022/08/04 04:15:18;;;;;;;6.00;4.28;;;;;;;23.39;50.74;100630.91;5583242;31;33526;-57
2022/08/04 04:18:38;;;;;;;12.32;4.15;;;;;;;23.49;50.69;100626.00;5584017;31;33691;-57
2022/08/04 04:22:15;;;;;;;5.93;3.97;;;;;;;23.73;48.97;100631.19;5582871;32;34397;-57
2022/08/04 04:25:49;;;;;;;5.80;3.87;;;;;;;23.77;49.52;100639.44;5583931;32;33626;-57
2022/08/04 04:29:01;;;;;;;6.43;4.20;;;;;;;23.75;50.28;100637.09;5583912;31;33623;-57
2022/08/04 04:32:21;;;;;;;4.60;3.78;;;;;;;23.80;50.25;100642.25;5583954;31;33597;-57
2022/08/04 04:35:30;;;;;;;6.78;3.60;;;;;;;23.84;50.34;100645.06;5583155;32;34340;-57
2022/08/04 04:38:41;;;;;;;4.55;3.75;;;;;;;23.91;48.34;100643.25;5582484;31;34332;-57
2022/08/04 04:41:50;;;;;;;5.40;3.90;;;;;;;23.99;49.54;100651.59;5583876;31;34314;-57
2022/08/04 04:45:18;;;;;;;4.90;3.67;;;;;;;24.08;49.40;100649.41;5583736;31;34346;-57
2022/08/04 04:48:53;;;;;;;12.82;4.20;;;;;;;24.10;47.93;100649.81;5564236;32;32855;-57
2022/08/04 04:52:22;;;;;;;5.32;3.47;;;;;;;24.27;48.16;100646.59;5552266;32;34209;-57
2022/08/04 04:55:30;;;;;;;5.37;3.92;;;;;;;24.27;46.86;100654.00;5563862;32;33578;-57
2022/08/04 04:58:34;;;;;;;6.40;3.83;;;;;;;24.24;48.99;100655.56;5564035;32;33813;-57
2022/08/04 05:02:13;;;;;;;5.35;3.50;;;;;;;24.23;49.45;100651.22;5563471;32;33706;-57
2022/08/04 05:05:34;;;;;;;7.03;3.60;;;;;;;24.36;48.53;100658.06;5563412;32;33741;-57
2022/08/04 05:08:55;;;;;;;5.43;3.67;;;;;;;24.34;48.96;100654.94;5563295;32;34331;-57
2022/08/04 05:12:18;;;;;;;5.03;3.40;;;;;;;24.34;50.06;100654.94;5563214;32;33701;-57
2022/08/04 05:15:44;;;;;;;10.90;3.78;;;;;;;24.38;48.35;100655.78;5550981;32;33537;-57
2022/08/04 05:19:10;;;;;;;6.85;3.45;;;;;;;24.47;48.02;100662.97;5550568;32;33574;-57
2022/08/04 05:22:30;;;;;;;7.20;3.60;;;;;;;24.51;48.38;100663.84;5550531;32;34378;-57
2022/08/04 05:25:40;;;;;;;8.18;3.30;;;;;;;24.63;47.74;100666.34;5550845;32;33696;-57
2022/08/04 05:28:54;;;;;;;14.48;3.17;;;;;;;24.64;48.57;100673.44;5550451;32;33703;-57
2022/08/04 05:32:00;;;;;;;4.10;3.20;;;;;;;24.70;45.49;100671.97;5550859;32;34271;-57
2022/08/04 05:35:08;;;;;;;21.62;3.90;;;;;;;24.67;46.51;100669.16;5550145;32;33573;-57
2022/08/04 05:38:15;;;;;;;10.25;3.28;;;;;;;24.80;46.51;100674.06;5552186;32;34198;-57
2022/08/04 05:41:18;;;;;;;11.38;3.20;;;;;;;25.10;44.16;100678.78;5569607;32;33598;-58
2022/08/04 05:44:22;;;;;;;10.02;3.50;;;;;;;25.23;43.76;100674.69;5568765;32;34270;-57
2022/08/04 05:47:26;;;;;;;10.93;3.35;;;;;;;25.38;42.96;100681.13;5569391;31;33708;-57
2022/08/04 05:50:32;;;;;;;7.60;3.20;;;;;;;25.58;42.13;100675.47;5569548;32;34589;-58
2022/08/04 05:53:36;;;;;;;17.48;3.87;;;;;;;25.63;41.68;100672.38;5552495;32;34320;-57
2022/08/04 05:56:39;;;;;;;20.23;3.97;;;;;;;25.77;42.35;100681.56;5549793;32;33732;-57
2022/08/04 05:59:45;;;;;;;10.80;3.40;;;;;;;25.89;41.53;100685.25;5549434;32;33551;-57
2022/08/04 06:02:48;;;;;;;12.98;3.37;;;;;;;25.96;41.52;100677.87;5550017;32;33730;-57
2022/08/04 06:05:51;;;;;;;5.75;3.20;;;;;;;26.01;40.83;100682.22;5549936;32;34269;-57
2022/08/04 06:08:54;;;;;;;8.60;2.90;;;;;;;26.18;40.71;100680.81;5550030;32;34265;-57
2022/08/04 06:12:05;;;;;;;11.10;3.62;;;;;;;26.22;40.77;100682.44;5549688;32;33269;-57
2022/08/04 06:15:12;;;;;;;8.05;3.35;;;;;;;26.27;41.69;100681.28;5549489;32;33749;-57
2022/08/04 06:18:15;;;;;;;6.50;3.45;;;;;;;26.32;40.94;100680.16;5550100;32;33665;-57
2022/08/04 06:21:41;;;;;;;22.27;3.85;;;;;;;26.31;40.98;100682.09;5549159;32;32262;-57
2022/08/04 06:24:47;;;;;;;25.23;4.50;;;;;;;26.40;40.28;100681.78;5549410;32;33163;-58
2022/08/04 06:27:51;;;;;;;13.15;3.75;;;;;;;26.46;40.83;100685.78;5548833;32;33641;-57
2022/08/04 06:30:54;;;;;;;26.77;4.45;;;;;;;26.48;40.29;100680.69;5549678;32;34367;-58
2022/08/04 06:34:01;;;;;;;14.82;3.50;;;;;;;26.62;40.51;100691.81;5549571;32;34862;-58
2022/08/04 06:37:06;;;;;;;8.65;3.12;;;;;;;26.65;40.32;100680.03;5551722;32;34381;-57
2022/08/04 06:40:11;;;;;;;5.53;2.70;;;;;;;26.67;40.36;100685.94;5550095;32;33675;-57
2022/08/04 06:43:35;;;;;;;8.80;3.28;;;;;;;26.77;39.90;100684.44;5549926;32;34357;-57
2022/08/04 06:46:45;;;;;;;9.40;3.00;;;;;;;26.89;39.43;100675.88;5549821;32;33677;-57
2022/08/04 06:49:50;;;;;;;5.85;2.72;;;;;;;26.91;39.00;100678.25;5549490;32;33600;-58
2022/08/04 06:53:13;;;;;;;21.17;3.60;;;;;;;26.89;39.32;100667.63;5549816;32;33810;-57
2022/08/04 06:56:17;;;;;;;11.70;3.70;;;;;;;27.03;40.00;100674.37;5549738;32;34377;-57
2022/08/04 06:59:21;;;;;;;5.75;3.28;;;;;;;27.07;39.57;100675.19;5549683;32;33626;-57
2022/08/04 07:02:27;;;;;;;8.00;2.70;;;;;;;27.10;39.14;100675.19;5549615;32;34369;-57
2022/08/04 07:05:31;;;;;;;10.18;2.67;;;;;;;27.16;38.00;100675.66;5549923;32;33647;-57
2022/08/04 07:08:35;;;;;;;7.97;3.17;;;;;;;27.15;38.58;100676.81;5551560;32;34246;-58
2022/08/04 07:11:37;;;;;;;4.32;2.70;;;;;;;27.27;39.19;100678.47;5564031;32;34264;-57
2022/08/04 07:14:48;;;;;;;9.23;2.60;;;;;;;27.38;37.78;100671.00;5569137;32;33688;-57
2022/08/04 07:17:52;;;;;;;7.87;3.10;;;;;;;27.44;38.55;100671.44;5568966;32;33670;-58
2022/08/04 07:20:56;;;;;;;3.85;2.53;;;;;;;27.45;38.94;100671.06;5568946;32;34176;-58
2022/08/04 07:23:58;;;;;;;9.20;3.03;;;;;;;27.47;38.14;100674.19;5568747;32;33755;-58
2022/08/04 07:27:02;;;;;;;3.10;2.70;;;;;;;27.56;37.95;100680.13;5568778;32;33664;-57
2022/08/04 07:30:07;;;;;;;11.27;2.70;;;;;;;27.69;36.69;100677.03;5569104;32;33546;-57
2022/08/04 07:33:10;;;;;;;4.35;2.47;;;;;;;27.73;36.12;100673.09;5568472;32;33574;-57
2022/08/04 07:36:12;;;;;;;5.93;3.05;;;;;;;27.78;35.63;100674.69;5567981;32;33587;-58
2022/08/04 07:39:16;;;;;;;4.47;2.90;;;;;;;27.75;36.74;100669.94;5568280;32;33443;-57
2022/08/04 07:42:30;;;;;;;8.80;2.90;;;;;;;27.81;36.41;100662.91;5568707;32;33704;-57
2022/08/04 07:45:32;;;;;;;8.95;3.55;;;;;;;27.79;36.72;100665.28;5568299;32;34263;-57
2022/08/04 07:48:34;;;;;;;7.32;3.53;;;;;;;27.81;39.82;100668.41;5568064;32;33711;-57
2022/08/04 07:51:38;;;;;;;8.98;2.90;;;;;;;27.80;40.67;100664.09;5568292;32;33542;-57
2022/08/04 07:54:41;;;;;;;7.90;2.95;;;;;;;27.69;47.18;100657.75;5568133;32;34304;-57
2022/08/04 07:57:43;;;;;;;7.32;3.45;;;;;;;27.58;46.59;100655.75;5568128;32;33703;-58
2022/08/04 08:00:46;;;;;;;4.93;3.03;;;;;;;27.42;45.45;100658.06;5568160;32;33621;-58
2022/08/04 08:03:50;;;;;;;4.30;2.70;;;;;;;27.33;45.78;100661.19;5567747;32;33721;-58
2022/08/04 08:06:53;;;;;;;5.62;2.83;;;;;;;27.31;46.25;100660.78;5568068;32;33431;-58
2022/08/04 08:09:55;;;;;;;3.22;2.70;;;;;;;27.33;41.37;100657.66;5568052;32;34320;-58
2022/08/04 08:12:57;;;;;;;4.07;2.80;;;;;;;27.34;41.13;100657.25;5568108;32;33788;-58
2022/08/04 08:16:01;;;;;;;6.12;3.00;;;;;;;27.43;41.46;100656.09;5568120;32;34553;-58
2022/08/04 08:19:04;;;;;;;8.48;2.78;;;;;;;27.47;41.15;100652.19;5568030;32;33594;-58
2022/08/04 08:22:10;;;;;;;5.05;2.65;;;;;;;27.46;44.67;100664.37;5567743;32;33577;-58
2022/08/04 08:25:12;;;;;;;6.43;3.30;;;;;;;27.50;41.90;100658.88;5566470;32;33600;-58
2022/08/04 08:28:15;;;;;;;10.57;3.12;;;;;;;27.54;44.47;100657.69;5567770;32;34429;-58
2022/08/04 08:31:17;;;;;;;6.55;2.92;;;;;;;27.59;39.74;100656.56;5567164;32;34276;-58
2022/08/04 08:34:20;;;;;;;8.10;3.08;;;;;;;27.69;39.29;100657.75;5567299;32;33662;-58
2022/08/04 08:37:46;;;;;;;5.37;3.03;;;;;;;27.83;39.05;100655.03;5567663;32;33610;-58
2022/08/04 08:41:05;;;;;;;6.70;3.20;;;;;;;27.77;37.35;100660.16;5567597;32;33623;-58
2022/08/04 08:44:32;;;;;;;10.00;3.17;;;;;;;27.77;38.73;100651.88;5567485;32;33795;-58
2022/08/04 08:48:06;;;;;;;9.32;2.72;;;;;;;27.90;39.68;100649.53;5559996;32;33327;-58
2022/08/04 08:51:43;;;;;;;6.53;2.70;;;;;;;27.96;40.06;100659.00;5560305;32;34380;-57
2022/08/04 08:55:16;;;;;;;6.95;3.20;;;;;;;27.99;36.25;100651.94;5554455;32;34489;-58
2022/08/04 08:58:31;;;;;;;21.95;3.90;;;;;;;28.05;36.08;100653.91;5550735;32;33743;-57
2022/08/04 09:01:46;;;;;;;;;;;;;;;28.11;37.29;100648.75;5549803;32;34412;-57
2022/08/04 09:05:04;;;;;;;;;;;;;;;28.26;37.67;100650.34;5551149;32;33695;-58
2022/08/04 09:08:32;;;;;;;8.77;2.85;;;;;;;28.29;36.39;100646.81;5550903;32;34026;-57
2022/08/04 09:12:05;;;;;;;2.80;2.53;;;;;;;28.42;36.67;100647.22;5550435;32;33709;-58
2022/08/04 09:15:11;;;;;;;5.45;2.90;;;;;;;28.53;35.51;100653.50;5550518;32;33706;-57
2022/08/04 09:18:30;;;;;;;5.57;2.85;;;;;;;28.57;35.43;100653.50;5550461;32;33873;-57
2022/08/04 09:21:38;;;;;;;5.43;2.75;;;;;;;28.59;35.69;100655.88;5557019;32;33664;-58
2022/08/04 09:24:52;;;;;;;4.30;3.20;;;;;;;28.71;35.36;100652.69;5567209;32;33642;-58
2022/08/04 09:27:59;;;;;;;4.15;2.65;;;;;;;28.74;36.28;100655.47;5568143;32;33748;-58
2022/08/04 09:31:15;;;;;;;3.90;2.70;;;;;;;28.75;35.79;100650.72;5565222;32;33734;-58
2022/08/04 09:34:26;;;;;;;5.53;2.87;;;;;;;28.78;34.91;100647.94;5568247;32;33741;-58
2022/08/04 09:37:34;;;;;;;6.35;2.97;;;;;;;28.72;35.77;100641.25;5568813;32;34158;-58
2022/08/04 09:41:05;;;;;;;5.70;2.67;;;;;;;28.75;33.91;100632.19;5568137;32;34412;-57
2022/08/04 09:44:46;;;;;;;3.22;2.72;;;;;;;28.86;34.73;100643.19;5556717;32;34385;-58
2022/08/04 09:48:05;;;;;;;6.75;3.15;;;;;;;28.95;34.80;100637.25;5553585;32;34246;-58
2022/08/04 09:51:37;;;;;;;2.95;2.60;;;;;;;28.96;34.08;100630.53;5566119;32;33813;-58
2022/08/04 09:55:30;;;;;;;5.43;2.62;;;;;;;29.00;34.29;100626.59;5569080;32;34467;-58
2022/08/04 09:58:32;;;;;;;4.18;2.80;;;;;;;29.02;34.13;100620.69;5569671;32;33629;-58
2022/08/04 10:01:37;;;;;;;4.20;2.67;;;;;;;29.14;34.26;100616.69;5568442;32;34431;-57
2022/08/04 10:04:42;;;;;;;4.60;2.40;;;;;;;29.02;34.06;100621.47;5569394;32;33688;-58
2022/08/04 10:07:55;;;;;;;4.37;2.60;;;;;;;29.11;34.44;100614.75;5567396;32;34450;-58
2022/08/04 10:11:43;;;;;;;6.15;2.60;;;;;;;29.12;33.67;100613.56;5567893;32;33614;-58
2022/08/04 10:15:10;;;;;;;6.10;3.10;;;;;;;29.23;33.84;100608.78;5567180;32;34253;-58
2022/08/04 10:18:44;;;;;;;3.70;2.90;;;;;;;29.36;33.19;100615.41;5566197;32;33965;-58
2022/08/04 10:21:59;;;;;;;4.32;2.85;;;;;;;29.42;33.61;100611.03;5557685;32;33644;-58
2022/08/04 10:25:48;;;;;;;4.07;3.03;;;;;;;29.45;33.68;100601.94;5556226;32;34518;-58
2022/08/04 10:29:13;;;;;;;8.18;3.05;;;;;;;29.48;34.36;100603.13;5560213;32;33652;-57
2022/08/04 10:32:24;;;;;;;3.03;2.72;;;;;;;29.39;35.21;100597.25;5563445;32;34455;-57
2022/08/04 10:35:31;;;;;;;4.65;2.95;;;;;;;29.34;33.13;100601.22;5559122;32;33345;-57
2022/08/04 10:38:59;;;;;;;5.05;3.17;;;;;;;29.43;34.12;100595.25;5558113;32;33766;-58
2022/08/04 10:42:12;;;;;;;4.57;3.33;;;;;;;29.41;33.14;100592.13;5559810;32;34350;-57
2022/08/04 10:45:24;;;;;;;3.95;2.80;;;;;;;29.42;32.93;100580.66;5559307;32;34336;-58
2022/08/04 10:48:35;;;;;;;3.90;2.90;;;;;;;29.49;34.27;100577.06;5560925;32;33376;-58
2022/08/04 10:51:49;;;;;;;8.35;3.15;;;;;;;29.61;33.63;100571.09;5565355;32;33798;-58
2022/08/04 10:55:32;;;;;;;5.55;3.45;;;;;;;29.65;33.77;100574.62;5566428;32;33169;-58
2022/08/04 10:59:01;;;;;;;5.60;3.20;;;;;;;29.61;33.26;100564.78;5566254;32;33582;-58
2022/08/04 11:02:29;;;;;;;3.25;2.90;;;;;;;29.69;33.05;100553.25;5567208;32;33740;-58
2022/08/04 11:05:49;;;;;;;5.22;3.35;;;;;;;29.83;32.72;100562.63;5563303;32;33422;-58
2022/08/04 11:08:54;;;;;;;3.22;2.92;;;;;;;29.79;32.89;100559.91;5565417;32;34309;-58
2022/08/04 11:12:14;;;;;;;5.68;3.30;;;;;;;29.82;32.26;100558.31;5564288;32;33509;-58
2022/08/04 11:15:29;;;;;;;5.30;3.03;;;;;;;29.94;33.09;100557.81;5564304;32;34227;-58
2022/08/04 11:19:05;;;;;;;4.45;3.30;;;;;;;29.83;32.50;100555.13;5563257;32;32922;-58
2022/08/04 11:22:21;;;;;;;8.73;3.67;;;;;;;29.87;34.79;100558.66;5563265;32;33862;-58
2022/08/04 11:25:31;;;;;;;7.25;3.50;;;;;;;29.88;33.07;100557.47;5561638;32;33158;-58
2022/08/04 11:29:10;;;;;;;4.10;3.35;;;;;;;30.00;32.68;100556.19;5558233;32;33627;-58
2022/08/04 11:32:19;;;;;;;7.05;3.67;;;;;;;30.04;32.67;100551.41;5559728;32;33652;-58
2022/08/04 11:35:30;;;;;;;6.28;3.37;;;;;;;30.06;32.47;100549.00;5558952;32;33784;-57
2022/08/04 11:38:48;;;;;;;3.58;3.28;;;;;;;30.00;31.92;100547.09;5567466;32;34426;-58
2022/08/04 11:42:17;;;;;;;6.62;3.42;;;;;;;29.88;32.86;100540.09;5568031;32;33629;-58
2022/08/04 11:45:32;;;;;;;6.00;3.50;;;;;;;29.91;31.91;100531.00;5563882;32;34401;-58
2022/08/04 11:48:40;;;;;;;6.57;3.45;;;;;;;29.93;31.91;100542.41;5568183;32;34311;-58
2022/08/04 11:51:44;;;;;;;5.30;3.60;;;;;;;29.96;32.57;100536.06;5568686;32;33718;-57
2022/08/04 11:54:48;;;;;;;9.48;3.37;;;;;;;30.12;31.69;100522.47;5568673;32;33635;-58
2022/08/04 11:57:55;;;;;;;8.60;3.35;;;;;;;30.23;31.91;100527.16;5568439;32;33764;-58
2022/08/04 12:01:16;;;;;;;7.07;3.40;;;;;;;30.20;31.44;100526.00;5567126;32;34487;-58
2022/08/04 12:04:55;;;;;;;4.22;3.28;;;;;;;30.12;32.01;100521.69;5568467;32;34362;-58
2022/08/04 12:08:31;;;;;;;4.72;3.53;;;;;;;30.01;31.77;100518.28;5562791;32;33768;-58
2022/08/04 12:11:52;;;;;;;4.30;3.40;;;;;;;29.91;32.12;100506.91;5552523;32;34461;-58
2022/08/04 12:15:09;;;;;;;4.72;3.40;;;;;;;29.99;32.28;100509.59;5561143;32;33838;-58
2022/08/04 12:18:33;;;;;;;4.68;3.47;;;;;;;29.93;32.36;100504.53;5563477;32;33782;-58
2022/08/04 12:21:41;;;;;;;7.23;3.47;;;;;;;30.02;32.68;100500.47;5564779;32;33691;-58
2022/08/04 12:24:58;;;;;;;8.20;3.50;;;;;;;30.11;31.76;100498.03;5568612;32;34170;-58
2022/08/04 12:28:30;;;;;;;5.28;3.35;;;;;;;30.15;32.87;100491.25;5570871;32;33747;-58
2022/08/04 12:31:57;;;;;;;4.18;3.45;;;;;;;30.09;31.73;100495.66;5568221;32;33731;-58
2022/08/04 12:35:13;;;;;;;7.10;3.70;;;;;;;30.09;32.19;100483.81;5568069;32;32739;-58
2022/08/04 12:38:19;;;;;;;4.65;3.65;;;;;;;30.22;31.04;100495.94;5568969;32;33651;-58
2022/08/04 12:41:27;;;;;;;6.93;3.83;;;;;;;30.32;31.07;100486.75;5569051;32;33694;-58
2022/08/04 12:44:37;;;;;;;5.22;3.35;;;;;;;30.17;31.13;100485.31;5570500;32;33711;-58
2022/08/04 12:47:41;;;;;;;4.15;3.53;;;;;;;30.14;30.87;100486.94;5567393;32;33596;-58
2022/08/04 12:50:52;;;;;;;7.22;3.85;;;;;;;30.07;30.80;100475.94;5566881;32;33646;-58
2022/08/04 12:53:56;;;;;;;13.68;4.00;;;;;;;30.00;31.84;100472.44;5566924;32;33674;-58
2022/08/04 12:57:00;;;;;;;4.10;3.40;;;;;;;30.00;31.58;100466.94;5568229;32;34509;-58
2022/08/04 13:00:04;;;;;;;5.35;3.70;;;;;;;29.95;31.33;100466.19;5569051;32;34323;-58
2022/08/04 13:03:14;;;;;;;4.68;3.40;;;;;;;29.96;31.44;100470.50;5564782;32;33966;-58
2022/08/04 13:06:23;;;;;;;8.73;3.70;;;;;;;29.90;31.86;100468.59;5569013;32;33769;-57
2022/08/04 13:09:31;;;;;;;6.05;3.87;;;;;;;29.84;31.99;100468.28;5568829;32;34284;-58
2022/08/04 13:12:35;;;;;;;7.12;3.80;;;;;;;29.87;31.92;100461.94;5567189;32;34371;-58
2022/08/04 13:15:38;;;;;;;5.70;3.60;;;;;;;30.06;31.62;100466.06;5567007;32;34443;-58
2022/08/04 13:18:58;;;;;;;4.95;3.42;;;;;;;30.22;30.83;100459.22;5569116;32;32978;-58
2022/08/04 13:22:06;;;;;;;7.87;3.72;;;;;;;30.14;31.59;100452.97;5570185;32;33835;-58
2022/08/04 13:25:09;;;;;;;19.83;4.30;;;;;;;30.13;31.47;100449.44;5569678;32;33619;-58
2022/08/04 13:28:33;;;;;;;9.80;3.60;;;;;;;30.08;31.06;100458.16;5567762;32;34363;-58
2022/08/04 13:31:36;;;;;;;5.57;3.62;;;;;;;30.01;32.68;100451.94;5568306;32;33786;-57
2022/08/04 13:34:41;;;;;;;4.37;3.35;;;;;;;30.05;31.12;100452.66;5566210;32;33737;-58
2022/08/04 13:37:51;;;;;;;10.73;3.70;;;;;;;30.04;30.40;100437.28;5569141;32;34268;-57
2022/08/04 13:41:02;;;;;;;4.65;3.50;;;;;;;30.24;30.64;100446.56;5568887;32;33705;-57
2022/08/04 13:44:08;;;;;;;7.07;3.58;;;;;;;30.27;30.18;100440.19;5569100;32;34239;-58
2022/08/04 13:47:28;;;;;;;5.10;3.30;;;;;;;30.33;30.59;100432.22;5567616;32;33609;-58
2022/08/04 13:50:32;;;;;;;5.72;3.83;;;;;;;30.43;30.34;100428.53;5568967;32;33372;-58
2022/08/04 13:53:36;;;;;;;6.50;3.37;;;;;;;30.62;29.72;100430.66;5570110;32;33795;-58
2022/08/04 13:56:44;;;;;;;7.70;3.70;;;;;;;30.66;29.22;100425.88;5567633;32;33819;-58
2022/08/04 13:59:56;;;;;;;8.18;3.55;;;;;;;30.66;29.43;100416.75;5565600;32;33346;-58
2022/08/04 14:03:04;;;;;;;8.55;3.67;;;;;;;30.73;29.60;100418.66;5568116;32;33472;-58
2022/08/04 14:06:33;;;;;;;7.00;3.45;;;;;;;30.76;29.06;100421.41;5569778;32;33881;-58
2022/08/04 14:09:38;;;;;;;8.70;3.70;;;;;;;30.90;28.40;100412.12;5570098;32;34356;-58
2022/08/04 14:12:46;;;;;;;8.20;3.53;;;;;;;30.82;28.84;100410.63;5568846;32;33637;-58
2022/08/04 14:15:50;;;;;;;5.62;3.40;;;;;;;30.84;28.80;100409.03;5569875;32;34533;-57
2022/08/04 14:19:04;;;;;;;14.32;3.97;;;;;;;30.99;28.44;100404.03;5568656;32;33687;-58
2022/08/04 14:22:08;;;;;;;5.18;3.37;;;;;;;30.92;28.61;100397.84;5566524;32;34237;-58
2022/08/04 14:25:17;;;;;;;13.45;3.90;;;;;;;30.93;28.75;100396.63;5566978;32;33671;-58
2022/08/04 14:28:30;;;;;;;4.85;3.60;;;;;;;30.86;28.96;100398.34;5568677;32;34317;-58
2022/08/04 14:32:00;;;;;;;4.67;3.60;;;;;;;30.99;28.73;100386.66;5569473;32;33842;-58
2022/08/04 14:35:11;;;;;;;4.68;3.42;;;;;;;31.01;27.88;100396.09;5565842;32;34192;-58
